CheckWX is a tool to help pilots better visualize weather data.  It is not intended as a substitute for an official pre-flight weather briefing.

23:33:15 UTC

KEWN TAF
Coastal Carolina Regional Airport
New Bern, North Carolina, USA
KEWN 191722Z 1918/2018 03011G18KT P6SM BKN250 FM200000 04009KT P6SM BKN150 FM200900 03009KT P6SM BKN050

Mar-19@
18:00 UTC

Mar-19 @ 18:00 UTC

Mar-20@
00:00 UTC

Mar-20 @ 00:00 UTC

KEWN 191722Z 1918/2018 03011G18KT P6SM BKN250
Wind
  • 030° at 11 KTS
  • {Gusting to 18 KTS
Cloud Levels
  • Broken at 25,000' AGL

Mar-20@
00:00 UTC

Mar-20 @ 00:00 UTC

Mar-20@
09:00 UTC

Mar-20 @ 09:00 UTC

FM200000 04009KT P6SM BKN150

From

From Standard forecast or significant change

Wind
  • 040° at 9 KTS
Cloud Levels
  • Broken at 15,000' AGL

Mar-20@
09:00 UTC

Mar-20 @ 09:00 UTC

Mar-20@
18:00 UTC

Mar-20 @ 18:00 UTC

FM200900 03009KT P6SM BKN050

From

From Standard forecast or significant change

Wind
  • 030° at 9 KTS
Cloud Levels
  • Broken at 5,000' AGL